Time;durP1;ratioP1;P1;durP2;ratioP2;P2;SDS_P1;SDS_P2;PMS_P1;PMS_P2;Temp;Humidity;BMP_temperature;BMP_pressure;BME280_temperature;BME280_humidity;BME280_pressure;Samples;Min_cycle;Max_cycle;Signal;HPM_P1;HPM_P2
2021/08/27 00:00:57;;;;;;;6.40;3.67;;;17.80;77.10;;;;;;4984074;28;20237;-89
2021/08/27 00:03:23;;;;;;;6.72;3.97;;;17.90;77.10;;;;;;4988799;28;20716;-90
2021/08/27 00:05:49;;;;;;;4.53;3.63;;;17.80;76.10;;;;;;4964722;28;20596;-89
2021/08/27 00:08:15;;;;;;;4.35;3.75;;;17.90;76.20;;;;;;4994763;28;20193;-89
2021/08/27 00:10:41;;;;;;;4.38;3.97;;;17.90;77.00;;;;;;5002228;28;20226;-90
2021/08/27 00:13:11;;;;;;;5.97;3.67;;;17.80;76.80;;;;;;5002917;28;20689;-89
2021/08/27 00:15:37;;;;;;;5.25;4.15;;;17.90;76.70;;;;;;4996857;28;20182;-89
2021/08/27 00:18:02;;;;;;;5.15;3.55;;;17.90;76.60;;;;;;4992651;28;20659;-90
2021/08/27 00:20:28;;;;;;;5.00;3.72;;;18.00;75.90;;;;;;5016635;28;20205;-89
2021/08/27 00:22:54;;;;;;;5.57;3.97;;;18.00;77.40;;;;;;5016632;28;20183;-89
2021/08/27 00:25:20;;;;;;;4.95;4.00;;;17.90;77.10;;;;;;4996343;28;20193;-89
2021/08/27 00:27:45;;;;;;;5.85;4.35;;;17.90;76.90;;;;;;4992175;28;20201;-89
2021/08/27 00:30:12;;;;;;;5.20;3.72;;;18.00;76.50;;;;;;4992813;28;20290;-89
2021/08/27 00:32:38;;;;;;;6.85;3.88;;;18.10;76.20;;;;;;4993098;28;20249;-89
2021/08/27 00:35:05;;;;;;;4.35;3.97;;;18.00;76.40;;;;;;4996098;28;20198;-89
2021/08/27 00:37:31;;;;;;;5.82;3.90;;;18.00;77.00;;;;;;4981581;28;20187;-89
2021/08/27 00:39:57;;;;;;;5.20;4.07;;;17.80;77.70;;;;;;4996554;28;20193;-89
2021/08/27 00:42:23;;;;;;;5.45;4.00;;;17.90;77.50;;;;;;4991706;28;20198;-89
2021/08/27 00:44:49;;;;;;;5.82;4.13;;;17.90;77.00;;;;;;4983490;28;20285;-89
2021/08/27 00:47:16;;;;;;;3.67;3.35;;;17.90;77.10;;;;;;4978673;28;20608;-89
2021/08/27 00:49:42;;;;;;;4.85;3.90;;;17.80;77.20;;;;;;4997594;28;20865;-89
2021/08/27 00:52:09;;;;;;;4.60;3.55;;;17.70;77.50;;;;;;4987483;28;20305;-89
2021/08/27 00:54:35;;;;;;;6.90;4.28;;;17.70;77.70;;;;;;4993616;28;20558;-89
2021/08/27 00:57:06;;;;;;;4.47;3.67;;;17.70;78.00;;;;;;4994120;28;20212;-89
2021/08/27 00:59:32;;;;;;;4.90;3.95;;;17.60;78.10;;;;;;4992125;28;20195;-89
2021/08/27 01:01:58;;;;;;;4.28;3.88;;;17.60;78.00;;;;;;4991368;28;20198;-89
2021/08/27 01:04:23;;;;;;;6.65;3.70;;;17.60;78.60;;;;;;4976945;28;20214;-89
2021/08/27 01:06:52;;;;;;;5.93;3.97;;;17.50;78.80;;;;;;4988323;28;20209;-89
2021/08/27 01:09:47;;;;;;;7.25;3.85;;;17.50;79.30;;;;;;4994688;28;20564;-89
2021/08/27 01:12:22;;;;;;;5.97;4.13;;;17.50;79.20;;;;;;4979095;28;20288;-89
2021/08/27 01:14:56;;;;;;;5.55;4.38;;;17.40;79.00;;;;;;4977292;28;20211;-89
2021/08/27 01:17:30;;;;;;;6.18;3.67;;;17.40;78.70;;;;;;4987523;28;20220;-90
2021/08/27 01:20:09;;;;;;;6.22;4.15;;;17.50;78.90;;;;;;4981098;28;20195;-90
2021/08/27 01:23:15;;;;;;;4.80;3.60;;;17.50;79.00;;;;;;4979447;28;20304;-89
2021/08/27 01:25:51;;;;;;;4.60;3.97;;;17.40;78.90;;;;;;4975872;28;20204;-90
2021/08/27 01:28:19;;;;;;;4.35;3.95;;;17.50;79.10;;;;;;5007340;28;20193;-88
2021/08/27 01:31:14;;;;;;;4.03;3.65;;;17.50;79.10;;;;;;4988742;28;20210;-88
2021/08/27 01:33:47;;;;;;;5.68;4.15;;;17.50;79.20;;;;;;4980340;28;20206;-88
2021/08/27 01:36:14;;;;;;;5.07;3.75;;;17.40;79.30;;;;;;4994838;28;20181;-89
2021/08/27 01:38:43;;;;;;;6.28;3.83;;;17.40;78.80;;;;;;4990831;28;20190;-89
2021/08/27 01:41:11;;;;;;;9.10;4.35;;;17.60;78.80;;;;;;4991601;28;20221;-88
2021/08/27 01:43:39;;;;;;;7.35;3.70;;;17.60;78.40;;;;;;4993561;28;20325;-88
2021/08/27 01:46:05;;;;;;;4.22;3.83;;;17.50;78.90;;;;;;4993867;28;20249;-89
2021/08/27 01:48:34;;;;;;;4.28;3.80;;;17.60;78.50;;;;;;4984198;28;20203;-89
2021/08/27 01:51:04;;;;;;;4.43;4.00;;;17.60;78.70;;;;;;4979313;28;20233;-89
2021/08/27 01:53:31;;;;;;;6.60;4.03;;;17.70;78.40;;;;;;4980235;28;20604;-88
2021/08/27 01:55:58;;;;;;;4.35;3.95;;;17.70;78.00;;;;;;4995832;28;20201;-88
2021/08/27 01:58:26;;;;;;;6.22;4.15;;;17.60;78.40;;;;;;5005515;28;20214;-88
2021/08/27 02:00:55;;;;;;;6.38;4.40;;;17.60;79.00;;;;;;4994270;28;20206;-88
2021/08/27 02:03:23;;;;;;;5.07;3.97;;;17.70;78.40;;;;;;4994712;28;20287;-89
2021/08/27 02:05:50;;;;;;;4.65;3.80;;;17.70;78.10;;;;;;4986739;28;20194;-88
2021/08/27 02:08:16;;;;;;;6.32;4.07;;;17.80;78.80;;;;;;4981375;28;20271;-88
2021/08/27 02:10:42;;;;;;;4.05;3.58;;;17.70;80.20;;;;;;5010156;28;20209;-89
2021/08/27 02:13:09;;;;;;;5.65;3.80;;;17.50;80.20;;;;;;4995946;28;20261;-89
2021/08/27 02:15:36;;;;;;;4.80;4.13;;;17.60;80.50;;;;;;4993958;28;20186;-89
2021/08/27 02:18:02;;;;;;;5.93;4.25;;;17.60;79.70;;;;;;4978898;28;20221;-89
2021/08/27 02:20:28;;;;;;;5.40;3.85;;;17.60;79.70;;;;;;4994952;28;20186;-89
2021/08/27 02:22:55;;;;;;;6.63;4.80;;;17.60;79.50;;;;;;4993566;28;20337;-89
2021/08/27 02:25:26;;;;;;;7.75;4.70;;;17.50;79.80;;;;;;4996170;28;20210;-88
2021/08/27 02:27:52;;;;;;;5.75;3.92;;;17.50;80.10;;;;;;4983338;28;20175;-88
2021/08/27 02:30:21;;;;;;;6.85;4.03;;;17.40;82.80;;;;;;4989451;28;20276;-88
2021/08/27 02:32:49;;;;;;;4.95;4.45;;;17.40;82.30;;;;;;4984436;28;20195;-88
2021/08/27 02:35:16;;;;;;;5.78;4.25;;;17.50;82.30;;;;;;4983860;28;20820;-88
2021/08/27 02:37:43;;;;;;;6.22;4.13;;;17.40;83.80;;;;;;4989708;28;20224;-88
2021/08/27 02:40:10;;;;;;;7.22;4.15;;;17.40;83.60;;;;;;4988459;28;20538;-88
2021/08/27 02:42:36;;;;;;;4.78;4.38;;;17.30;84.30;;;;;;4999273;28;20186;-88
2021/08/27 02:45:05;;;;;;;5.00;4.50;;;17.30;84.10;;;;;;4995698;28;20245;-88
2021/08/27 02:47:30;;;;;;;5.45;4.78;;;17.20;84.40;;;;;;4998252;28;20577;-89
2021/08/27 02:49:57;;;;;;;5.28;4.43;;;17.20;84.20;;;;;;4996982;28;20191;-88
2021/08/27 02:52:38;;;;;;;5.43;4.22;;;17.20;84.40;;;;;;4984404;28;20241;-88
2021/08/27 02:55:22;;;;;;;4.25;3.88;;;17.30;84.00;;;;;;4988508;28;20246;-88
2021/08/27 02:57:59;;;;;;;5.28;3.90;;;17.40;82.30;;;;;;4996730;28;20190;-89
2021/08/27 03:00:27;;;;;;;4.78;4.28;;;17.40;82.80;;;;;;4998390;28;20206;-88
2021/08/27 03:02:55;;;;;;;4.68;4.10;;;17.40;83.60;;;;;;5013826;28;20183;-89
2021/08/27 03:05:27;;;;;;;5.72;4.10;;;17.40;83.90;;;;;;5008294;28;20598;-88
2021/08/27 03:08:02;;;;;;;5.75;4.00;;;17.40;84.40;;;;;;4994899;28;20202;-88
2021/08/27 03:10:50;;;;;;;3.83;3.53;;;17.40;84.10;;;;;;5002361;28;20186;-89
2021/08/27 03:13:23;;;;;;;4.13;3.83;;;17.50;84.30;;;;;;5020175;28;20210;-89
2021/08/27 03:16:01;;;;;;;6.03;4.35;;;17.40;84.00;;;;;;5008519;28;20204;-88
2021/08/27 03:18:49;;;;;;;5.60;3.60;;;17.50;84.30;;;;;;5011307;28;20191;-88
2021/08/27 03:21:20;;;;;;;4.63;3.72;;;17.40;84.60;;;;;;4989892;28;20557;-89
2021/08/27 03:23:49;;;;;;;4.00;3.50;;;17.50;84.50;;;;;;4983534;28;20213;-88
2021/08/27 03:26:22;;;;;;;5.07;4.18;;;17.40;84.70;;;;;;5000362;28;20185;-89
2021/08/27 03:28:52;;;;;;;4.68;4.03;;;17.30;85.00;;;;;;4996863;28;20187;-88
2021/08/27 03:31:18;;;;;;;4.65;3.45;;;17.20;85.90;;;;;;5012313;28;20726;-89
2021/08/27 03:33:45;;;;;;;5.47;4.32;;;17.10;85.40;;;;;;4999823;28;20224;-88
2021/08/27 03:36:11;;;;;;;6.82;4.65;;;17.10;85.30;;;;;;4994804;28;20558;-88
2021/08/27 03:38:38;;;;;;;4.55;4.13;;;17.10;85.10;;;;;;4991800;28;20190;-89
2021/08/27 03:41:05;;;;;;;4.88;4.38;;;17.10;85.10;;;;;;4998506;28;20186;-88
2021/08/27 03:43:31;;;;;;;5.57;3.95;;;17.20;85.60;;;;;;4990459;28;20570;-88
2021/08/27 03:45:59;;;;;;;4.53;4.13;;;17.20;84.90;;;;;;4997325;28;20193;-88
2021/08/27 03:48:29;;;;;;;4.90;3.72;;;17.30;83.80;;;;;;4999884;28;20226;-88
2021/08/27 03:50:55;;;;;;;4.35;3.95;;;17.30;84.10;;;;;;4983174;28;20224;-88
2021/08/27 03:53:22;;;;;;;5.13;3.80;;;17.30;84.50;;;;;;4993283;28;20301;-88
2021/08/27 03:55:52;;;;;;;5.95;4.03;;;17.30;84.60;;;;;;4996270;28;20187;-88
2021/08/27 03:58:22;;;;;;;7.07;4.95;;;17.20;84.80;;;;;;4998354;28;20181;-88
2021/08/27 04:00:49;;;;;;;4.20;3.80;;;17.10;85.10;;;;;;4983992;28;20264;-88
2021/08/27 04:03:15;;;;;;;5.22;4.30;;;17.10;84.80;;;;;;4986943;28;20233;-88
2021/08/27 04:06:06;;;;;;;6.15;4.63;;;17.20;83.40;;;;;;4998128;28;20181;-89
2021/08/27 04:08:42;;;;;;;6.72;3.97;;;17.20;82.70;;;;;;4984741;28;20194;-88
2021/08/27 04:11:11;;;;;;;4.95;3.95;;;17.20;83.60;;;;;;4992174;28;20214;-88
2021/08/27 04:13:36;;;;;;;5.25;3.60;;;17.10;84.30;;;;;;4999773;28;20690;-88
2021/08/27 04:16:03;;;;;;;6.18;4.38;;;17.00;85.30;;;;;;4998024;28;20233;-88
2021/08/27 04:18:29;;;;;;;6.07;4.68;;;17.00;84.90;;;;;;4997414;28;20598;-88
2021/08/27 04:20:54;;;;;;;6.10;5.13;;;17.00;85.40;;;;;;4993502;28;20193;-89
2021/08/27 04:23:20;;;;;;;4.80;4.28;;;17.00;85.60;;;;;;4981505;28;20229;-89
2021/08/27 04:25:46;;;;;;;6.53;4.53;;;17.00;85.50;;;;;;4994833;28;20199;-88
2021/08/27 04:28:12;;;;;;;4.63;4.18;;;16.90;85.50;;;;;;4994100;28;20192;-88
2021/08/27 04:30:38;;;;;;;4.70;4.22;;;17.00;84.90;;;;;;4982202;28;20197;-88
2021/08/27 04:33:04;;;;;;;6.88;4.07;;;17.00;84.40;;;;;;4998368;28;20786;-88
2021/08/27 04:35:30;;;;;;;6.55;4.22;;;17.00;84.50;;;;;;4993162;28;20208;-88
2021/08/27 04:37:56;;;;;;;5.35;4.32;;;17.00;85.30;;;;;;4996247;28;20669;-88
2021/08/27 04:40:22;;;;;;;6.25;4.55;;;17.00;84.60;;;;;;4985849;28;20219;-88
2021/08/27 04:42:48;;;;;;;6.78;4.43;;;17.00;84.70;;;;;;5001058;28;20767;-88
2021/08/27 04:45:13;;;;;;;5.85;4.72;;;17.10;84.70;;;;;;4993557;28;20201;-88
2021/08/27 04:47:39;;;;;;;6.63;4.57;;;17.00;85.70;;;;;;4995927;28;20195;-89
2021/08/27 04:50:06;;;;;;;6.88;3.92;;;16.90;85.10;;;;;;4984428;28;20210;-89
2021/08/27 04:52:32;;;;;;;6.28;4.22;;;16.90;85.00;;;;;;4985071;28;20313;-88
2021/08/27 04:54:58;;;;;;;5.70;4.15;;;16.90;85.30;;;;;;4983522;28;20254;-88
2021/08/27 04:57:24;;;;;;;5.25;4.50;;;17.00;84.60;;;;;;4998558;28;20185;-88
2021/08/27 04:59:50;;;;;;;4.82;3.78;;;17.00;85.10;;;;;;4996938;28;20229;-88
2021/08/27 05:02:16;;;;;;;4.85;4.13;;;17.00;84.80;;;;;;4994097;28;20220;-87
2021/08/27 05:04:42;;;;;;;4.95;4.10;;;17.00;84.60;;;;;;4997928;28;20217;-88
2021/08/27 05:07:08;;;;;;;5.97;4.43;;;17.00;84.70;;;;;;4995879;28;20662;-87
2021/08/27 05:09:34;;;;;;;5.50;4.47;;;17.10;84.90;;;;;;4993499;28;20193;-88
2021/08/27 05:12:00;;;;;;;5.57;4.10;;;17.00;84.90;;;;;;4999515;28;20216;-87
2021/08/27 05:14:26;;;;;;;4.68;4.28;;;17.00;84.40;;;;;;5014490;28;20734;-87
2021/08/27 05:16:52;;;;;;;5.57;4.15;;;17.00;84.30;;;;;;4995593;28;20197;-87
2021/08/27 05:19:18;;;;;;;4.20;3.78;;;16.90;84.20;;;;;;4999441;28;20249;-88
2021/08/27 05:21:43;;;;;;;5.28;4.28;;;17.00;83.90;;;;;;4982735;28;20253;-88
2021/08/27 05:24:09;;;;;;;5.63;4.45;;;17.00;84.90;;;;;;4995317;28;20229;-87
2021/08/27 05:26:35;;;;;;;5.38;4.30;;;17.00;84.80;;;;;;4985733;28;20204;-87
2021/08/27 05:29:03;;;;;;;6.72;4.15;;;17.00;84.70;;;;;;5000287;28;20190;-87
2021/08/27 05:31:29;;;;;;;8.40;3.97;;;17.00;84.60;;;;;;4987425;28;20228;-87
2021/08/27 05:33:55;;;;;;;4.15;3.75;;;17.00;84.90;;;;;;4987031;28;20223;-87
2021/08/27 05:36:20;;;;;;;4.85;4.20;;;17.00;85.20;;;;;;4984279;28;20183;-88
2021/08/27 05:38:47;;;;;;;9.35;4.00;;;17.00;84.60;;;;;;5000216;28;20202;-87
2021/08/27 05:41:13;;;;;;;5.45;4.18;;;17.00;84.20;;;;;;5013274;28;20206;-87
2021/08/27 05:43:39;;;;;;;6.15;4.10;;;17.00;84.10;;;;;;4982123;28;20745;-87
2021/08/27 05:46:05;;;;;;;5.88;4.10;;;17.00;84.40;;;;;;4995653;28;20227;-87
2021/08/27 05:48:30;;;;;;;5.85;4.13;;;17.00;84.80;;;;;;4986517;28;20202;-88
2021/08/27 05:50:57;;;;;;;4.72;4.15;;;17.10;84.50;;;;;;4988293;28;20221;-87
2021/08/27 05:53:22;;;;;;;5.95;4.35;;;17.10;83.70;;;;;;4998805;28;20229;-88
2021/08/27 05:55:48;;;;;;;4.10;3.72;;;17.10;84.00;;;;;;5011983;28;20215;-87
2021/08/27 05:58:14;;;;;;;6.20;4.88;;;17.00;85.30;;;;;;5005856;28;20911;-87
2021/08/27 06:00:40;;;;;;;4.88;4.10;;;16.80;86.00;;;;;;4981943;28;20190;-87
2021/08/27 06:03:05;;;;;;;4.77;4.00;;;16.70;86.60;;;;;;4990183;28;20239;-88
2021/08/27 06:05:31;;;;;;;6.20;3.73;;;16.70;87.10;;;;;;5005792;28;20190;-88
2021/08/27 06:07:57;;;;;;;4.93;4.20;;;16.60;88.10;;;;;;4993803;28;20196;-87
2021/08/27 06:10:23;;;;;;;4.80;4.20;;;16.70;86.60;;;;;;4998819;28;20197;-87
2021/08/27 06:12:49;;;;;;;4.33;3.70;;;16.80;86.40;;;;;;5014783;28;20308;-87
2021/08/27 06:15:15;;;;;;;4.95;3.95;;;16.80;85.90;;;;;;4999948;28;20249;-87
2021/08/27 06:17:41;;;;;;;4.70;4.05;;;16.90;86.00;;;;;;4983666;28;20197;-87
2021/08/27 06:20:08;;;;;;;6.32;4.10;;;17.00;86.10;;;;;;4998559;28;20298;-87
2021/08/27 06:22:36;;;;;;;5.20;4.70;;;17.00;85.50;;;;;;4995817;28;20195;-88
2021/08/27 06:25:03;;;;;;;8.27;4.20;;;17.00;85.60;;;;;;4997251;28;20308;-87
2021/08/27 06:27:31;;;;;;;4.30;3.83;;;16.90;84.70;;;;;;4990827;28;20241;-87
2021/08/27 06:29:58;;;;;;;5.60;3.90;;;16.80;84.40;;;;;;4984403;28;20278;-86
2021/08/27 06:32:25;;;;;;;4.05;3.75;;;16.70;84.00;;;;;;4980569;28;20205;-87
2021/08/27 06:34:51;;;;;;;5.82;4.45;;;16.70;84.40;;;;;;4990850;28;20231;-87
2021/08/27 06:37:16;;;;;;;7.40;4.60;;;16.80;83.70;;;;;;4990705;28;20193;-87
2021/08/27 06:39:45;;;;;;;5.10;4.60;;;16.60;83.40;;;;;;4991662;28;20245;-87
2021/08/27 06:42:11;;;;;;;5.93;4.60;;;16.60;83.90;;;;;;4989889;28;20207;-87
2021/08/27 06:44:37;;;;;;;6.30;4.33;;;16.60;84.90;;;;;;4992908;28;20264;-88
2021/08/27 06:47:03;;;;;;;5.95;4.22;;;16.60;83.80;;;;;;5003053;28;20211;-85
2021/08/27 06:49:28;;;;;;;5.85;4.22;;;16.60;82.70;;;;;;5000989;28;20193;-86
2021/08/27 06:51:54;;;;;;;4.63;4.07;;;16.60;82.70;;;;;;4989577;28;20272;-87
2021/08/27 06:54:20;;;;;;;4.47;4.07;;;16.60;84.00;;;;;;4987962;28;20279;-87
2021/08/27 06:56:45;;;;;;;4.23;3.83;;;16.60;84.30;;;;;;4990637;28;20217;-87
2021/08/27 06:59:11;;;;;;;4.70;4.03;;;16.50;84.40;;;;;;4976439;28;20566;-87
2021/08/27 07:01:37;;;;;;;6.28;4.90;;;16.60;83.70;;;;;;4993976;28;20441;-87
2021/08/27 07:04:02;;;;;;;4.90;4.50;;;16.60;83.40;;;;;;4983791;28;20220;-87
2021/08/27 07:06:28;;;;;;;7.20;5.20;;;16.60;83.90;;;;;;4989009;28;20198;-87
2021/08/27 07:08:54;;;;;;;4.97;4.47;;;16.60;83.50;;;;;;4991264;28;20546;-87
2021/08/27 07:11:19;;;;;;;5.03;4.13;;;16.60;84.00;;;;;;4992509;28;20220;-87
2021/08/27 07:13:45;;;;;;;4.93;4.40;;;16.50;83.80;;;;;;4991017;28;20229;-87
2021/08/27 07:16:12;;;;;;;6.20;4.43;;;16.50;84.00;;;;;;4994070;28;20200;-87
2021/08/27 07:18:41;;;;;;;5.80;4.07;;;16.50;83.80;;;;;;4991328;28;20219;-88
2021/08/27 07:21:07;;;;;;;5.60;4.20;;;16.50;83.60;;;;;;4995078;28;20200;-88
2021/08/27 07:23:33;;;;;;;4.83;4.33;;;16.50;84.00;;;;;;4995844;28;20240;-87
2021/08/27 07:25:59;;;;;;;5.30;4.77;;;16.50;83.50;;;;;;4993757;28;20205;-87
2021/08/27 07:28:24;;;;;;;6.80;4.22;;;16.60;83.80;;;;;;4985206;28;20193;-87
2021/08/27 07:30:50;;;;;;;5.10;4.60;;;16.50;83.80;;;;;;4995354;28;20592;-87
2021/08/27 07:33:15;;;;;;;4.83;4.10;;;16.60;83.50;;;;;;4988638;28;20224;-86
2021/08/27 07:35:41;;;;;;;4.80;4.38;;;16.70;82.90;;;;;;4990151;28;20255;-87
2021/08/27 07:38:07;;;;;;;5.00;4.30;;;16.80;81.30;;;;;;4990984;28;20224;-88
2021/08/27 07:40:32;;;;;;;5.38;4.18;;;16.90;80.70;;;;;;4990695;28;20443;-87
2021/08/27 07:43:00;;;;;;;4.40;4.00;;;17.00;80.20;;;;;;4992777;28;20197;-88
2021/08/27 07:45:26;;;;;;;4.07;3.67;;;17.20;79.30;;;;;;4992791;28;20192;-88
2021/08/27 07:47:52;;;;;;;5.38;4.07;;;17.30;77.90;;;;;;5001515;28;20667;-87
2021/08/27 07:50:18;;;;;;;5.57;3.28;;;17.30;76.90;;;;;;5002628;28;20194;-87
2021/08/27 07:52:44;;;;;;;5.18;3.63;;;17.30;74.80;;;;;;5001164;28;20213;-86
2021/08/27 07:55:10;;;;;;;5.30;3.90;;;17.40;73.50;;;;;;5000674;28;20213;-87
2021/08/27 07:57:43;;;;;;;5.53;3.37;;;17.40;73.60;;;;;;5003409;28;20682;-87
2021/08/27 08:00:10;;;;;;;6.87;3.40;;;17.30;74.10;;;;;;5003314;28;20237;-87
2021/08/27 08:02:36;;;;;;;3.77;3.40;;;17.30;72.50;;;;;;4999678;28;20293;-88
2021/08/27 08:05:03;;;;;;;3.27;2.97;;;17.40;74.40;;;;;;5014837;28;20209;-88
2021/08/27 08:07:28;;;;;;;3.40;3.10;;;17.50;72.50;;;;;;4994557;28;20173;-86
2021/08/27 08:09:54;;;;;;;4.40;3.37;;;17.50;70.60;;;;;;4994099;28;20666;-87
2021/08/27 08:12:19;;;;;;;4.43;3.20;;;17.60;70.90;;;;;;5000513;28;20239;-88
2021/08/27 08:14:45;;;;;;;4.13;3.00;;;17.70;69.90;;;;;;4992155;28;20297;-88
2021/08/27 08:17:11;;;;;;;3.77;3.30;;;17.60;71.30;;;;;;4995467;28;20202;-88
2021/08/27 08:19:37;;;;;;;4.63;3.07;;;17.70;71.00;;;;;;5009150;28;20183;-88
2021/08/27 08:22:03;;;;;;;4.73;3.30;;;17.50;70.50;;;;;;4993808;28;20200;-87
2021/08/27 08:24:28;;;;;;;4.22;2.78;;;17.70;70.40;;;;;;4993154;28;20241;-88
2021/08/27 08:26:54;;;;;;;4.30;2.63;;;17.90;70.20;;;;;;4995017;28;20665;-88
2021/08/27 08:29:20;;;;;;;5.53;2.97;;;18.00;67.90;;;;;;4990899;28;20224;-88
2021/08/27 08:31:46;;;;;;;3.50;2.42;;;18.10;67.60;;;;;;4992230;28;20239;-87
2021/08/27 08:34:12;;;;;;;4.70;3.25;;;18.20;68.50;;;;;;4999409;28;20521;-88
2021/08/27 08:36:38;;;;;;;4.68;2.47;;;18.40;64.80;;;;;;4990716;28;20191;-88
2021/08/27 08:39:05;;;;;;;6.28;2.70;;;18.40;64.80;;;;;;4993557;28;20209;-87
2021/08/27 08:41:31;;;;;;;4.50;3.00;;;18.40;64.60;;;;;;4996595;28;20301;-88
2021/08/27 08:43:57;;;;;;;5.45;3.38;;;18.50;64.20;;;;;;4995659;28;20604;-87
2021/08/27 08:46:23;;;;;;;2.92;2.63;;;18.60;64.80;;;;;;5001940;28;20211;-87
2021/08/27 08:48:51;;;;;;;3.30;2.78;;;18.60;66.40;;;;;;5008358;28;20189;-88
2021/08/27 08:51:18;;;;;;;4.05;2.85;;;18.50;66.70;;;;;;5000580;28;20214;-88
2021/08/27 08:53:49;;;;;;;2.55;2.33;;;18.60;64.70;;;;;;4987086;28;20194;-87
2021/08/27 08:56:16;;;;;;;3.17;2.70;;;18.90;61.20;;;;;;5008978;28;20194;-87
2021/08/27 08:58:42;;;;;;;3.35;2.75;;;19.00;59.80;;;;;;5014080;28;20178;-87
2021/08/27 09:01:16;;;;;;;5.22;2.90;;;18.80;63.50;;;;;;5011613;28;20220;-88
2021/08/27 09:03:42;;;;;;;6.20;2.80;;;18.70;64.30;;;;;;4993340;28;20216;-88
2021/08/27 09:06:08;;;;;;;4.88;2.63;;;18.70;64.50;;;;;;4992645;28;20194;-88
2021/08/27 09:08:39;;;;;;;2.88;2.40;;;18.90;61.70;;;;;;4994167;28;20205;-88
2021/08/27 09:11:22;;;;;;;2.72;2.50;;;19.10;61.90;;;;;;4995739;28;20760;-87
2021/08/27 09:13:50;;;;;;;3.03;2.40;;;19.40;59.60;;;;;;4998224;28;20273;-87
2021/08/27 09:16:17;;;;;;;6.30;2.75;;;19.60;60.40;;;;;;5010566;28;20285;-88
2021/08/27 09:18:46;;;;;;;2.92;2.63;;;19.70;57.90;;;;;;4987988;28;20240;-88
2021/08/27 09:21:31;;;;;;;2.97;2.33;;;20.00;57.10;;;;;;4991717;28;20240;-87
2021/08/27 09:24:16;;;;;;;4.13;2.78;;;20.20;58.10;;;;;;4991295;28;20217;-88
2021/08/27 09:26:48;;;;;;;5.68;2.80;;;19.50;60.70;;;;;;4988672;28;20216;-87
2021/08/27 09:29:43;;;;;;;5.05;3.00;;;19.50;60.20;;;;;;4991800;28;20209;-87
2021/08/27 09:32:19;;;;;;;4.40;2.92;;;19.60;59.50;;;;;;4991698;28;20209;-87
2021/08/27 09:34:46;;;;;;;7.10;3.05;;;19.50;60.20;;;;;;4992551;28;20218;-87
2021/08/27 09:37:12;;;;;;;4.25;2.90;;;19.50;59.40;;;;;;4993494;28;20189;-87
2021/08/27 09:39:38;;;;;;;2.63;2.22;;;19.40;59.80;;;;;;4974858;28;20630;-89
2021/08/27 09:42:04;;;;;;;4.50;2.35;;;19.20;58.70;;;;;;4990783;28;20218;-89
2021/08/27 09:44:30;;;;;;;2.58;2.38;;;19.10;58.70;;;;;;4994374;28;20582;-89
2021/08/27 09:47:00;;;;;;;3.28;2.70;;;19.00;61.30;;;;;;4991350;28;20200;-89
2021/08/27 09:49:32;;;;;;;4.45;2.92;;;19.00;63.40;;;;;;4993387;28;20258;-89
2021/08/27 09:52:00;;;;;;;2.60;2.40;;;19.00;61.80;;;;;;4988111;28;20233;-89
2021/08/27 09:54:29;;;;;;;4.47;2.60;;;19.00;62.30;;;;;;4991241;28;20215;-89
2021/08/27 09:57:06;;;;;;;3.22;2.47;;;19.10;62.50;;;;;;4979314;28;20564;-89
2021/08/27 09:59:43;;;;;;;3.50;2.80;;;19.10;64.20;;;;;;5007835;28;20190;-89
2021/08/27 10:02:14;;;;;;;3.67;3.00;;;19.50;63.10;;;;;;4991586;28;20182;-89
2021/08/27 10:04:55;;;;;;;4.53;2.60;;;19.80;61.00;;;;;;4992759;28;20202;-89
2021/08/27 10:07:33;;;;;;;4.55;3.10;;;19.80;61.50;;;;;;4992860;28;20198;-89
2021/08/27 10:10:00;;;;;;;5.10;3.30;;;19.60;60.70;;;;;;4992566;28;20192;-89
2021/08/27 10:12:30;;;;;;;3.00;2.70;;;19.30;61.30;;;;;;4988524;28;20254;-87
2021/08/27 10:14:57;;;;;;;4.50;3.15;;;19.30;60.50;;;;;;4989018;28;20248;-87
2021/08/27 10:17:23;;;;;;;4.47;2.90;;;19.70;61.70;;;;;;5006267;28;20193;-87
2021/08/27 10:19:49;;;;;;;2.80;2.50;;;20.20;58.50;;;;;;4989763;28;20191;-87
2021/08/27 10:22:15;;;;;;;4.80;3.42;;;20.60;57.20;;;;;;4990922;28;20226;-88
2021/08/27 10:24:43;;;;;;;4.43;2.83;;;20.70;56.20;;;;;;5003944;28;20217;-89
2021/08/27 10:27:10;;;;;;;3.33;2.50;;;21.20;54.60;;;;;;4987492;28;20194;-87
2021/08/27 10:30:04;;;;;;;3.13;2.80;;;21.10;50.40;;;;;;4990990;28;20390;-87
2021/08/27 10:32:39;;;;;;;3.92;2.63;;;21.50;52.90;;;;;;5001963;28;20222;-89
2021/08/27 10:35:31;;;;;;;3.88;2.70;;;22.00;53.20;;;;;;4992362;28;20243;-88
2021/08/27 10:37:57;;;;;;;4.72;3.25;;;22.30;50.00;;;;;;4988155;28;20205;-88
2021/08/27 10:40:23;;;;;;;3.17;2.75;;;22.30;48.30;;;;;;4989430;28;20265;-89
2021/08/27 10:42:55;;;;;;;3.50;3.20;;;22.10;49.40;;;;;;4996167;28;20201;-90
2021/08/27 10:45:33;;;;;;;4.43;3.15;;;21.40;51.90;;;;;;4996390;28;20672;-90
2021/08/27 10:48:10;;;;;;;3.72;3.30;;;21.00;54.00;;;;;;4987374;28;20248;-88
2021/08/27 10:50:41;;;;;;;8.35;3.60;;;20.60;55.00;;;;;;4998350;28;20230;-89
2021/08/27 10:53:26;;;;;;;2.67;2.47;;;20.40;56.10;;;;;;5006913;28;20910;-88
2021/08/27 10:55:52;;;;;;;3.20;2.90;;;20.30;59.00;;;;;;4996034;28;20553;-88
2021/08/27 10:58:24;;;;;;;4.70;3.42;;;20.20;58.50;;;;;;4993002;28;20197;-88
2021/08/27 11:00:53;;;;;;;5.25;3.13;;;20.10;62.50;;;;;;4990071;28;20208;-89
2021/08/27 11:03:21;;;;;;;3.58;2.80;;;19.90;63.60;;;;;;4995559;28;20207;-89
2021/08/27 11:05:48;;;;;;;3.80;2.97;;;19.90;65.20;;;;;;4994534;28;20209;-88
2021/08/27 11:08:24;;;;;;;3.78;3.00;;;19.80;64.00;;;;;;4997193;28;20251;-88
2021/08/27 11:11:16;;;;;;;4.20;3.08;;;19.70;64.30;;;;;;4995900;28;20278;-87
2021/08/27 11:13:42;;;;;;;3.20;2.95;;;19.70;65.90;;;;;;4992272;28;20770;-87
2021/08/27 11:16:21;;;;;;;3.83;3.45;;;19.70;66.60;;;;;;4997724;28;20975;-90
2021/08/27 11:18:50;;;;;;;6.00;3.17;;;19.80;66.70;;;;;;4996803;28;20239;-88
2021/08/27 11:21:30;;;;;;;3.55;3.25;;;20.00;63.70;;;;;;4995158;28;20188;-88
2021/08/27 11:24:13;;;;;;;3.42;3.13;;;20.20;62.90;;;;;;4996195;28;20208;-88
2021/08/27 11:26:47;;;;;;;4.15;3.08;;;20.30;63.10;;;;;;4992782;28;20179;-88
2021/08/27 11:29:30;;;;;;;3.78;3.17;;;20.20;59.70;;;;;;4995323;28;20281;-87
2021/08/27 11:31:56;;;;;;;3.30;2.97;;;20.40;58.80;;;;;;4993381;28;20799;-89
2021/08/27 11:34:45;;;;;;;5.00;3.30;;;20.60;57.30;;;;;;4993843;28;20226;-88
2021/08/27 11:37:14;;;;;;;3.58;3.25;;;20.60;57.50;;;;;;4999275;28;20715;-89
2021/08/27 11:39:40;;;;;;;4.72;3.50;;;20.80;55.90;;;;;;5002631;28;20248;-89
2021/08/27 11:42:06;;;;;;;3.70;3.10;;;20.50;56.70;;;;;;4992685;28;20280;-89
2021/08/27 11:44:40;;;;;;;3.40;3.10;;;20.50;58.30;;;;;;4990717;28;20568;-89
2021/08/27 11:47:08;;;;;;;4.45;3.45;;;20.80;57.80;;;;;;4996042;28;20185;-88
2021/08/27 11:49:35;;;;;;;4.60;3.67;;;20.70;55.30;;;;;;4998214;28;20198;-88
2021/08/27 11:52:13;;;;;;;5.38;3.63;;;20.60;55.30;;;;;;4992177;28;20254;-88
2021/08/27 11:54:40;;;;;;;3.78;3.08;;;20.80;55.00;;;;;;4993849;28;20217;-87
2021/08/27 11:57:14;;;;;;;3.67;3.38;;;20.90;55.70;;;;;;4994475;28;20220;-89
2021/08/27 11:59:41;;;;;;;4.03;3.50;;;20.90;54.90;;;;;;4992124;28;20185;-89
2021/08/27 12:02:18;;;;;;;3.90;3.25;;;21.00;54.20;;;;;;4995670;28;20785;-90
2021/08/27 12:04:44;;;;;;;4.05;3.30;;;21.00;54.60;;;;;;4996072;28;20233;-89
2021/08/27 12:07:14;;;;;;;3.70;3.40;;;20.90;54.90;;;;;;4993345;28;20206;-89
2021/08/27 12:09:41;;;;;;;3.85;3.45;;;20.80;55.50;;;;;;4994136;28;20196;-90
2021/08/27 12:12:27;;;;;;;4.00;3.45;;;20.80;55.70;;;;;;4993911;28;20226;-90
2021/08/27 12:14:53;;;;;;;4.50;3.22;;;20.90;55.90;;;;;;4992678;28;20219;-90
2021/08/27 12:17:25;;;;;;;3.22;3.03;;;21.00;56.10;;;;;;4992886;28;20197;-90
2021/08/27 12:19:52;;;;;;;6.10;3.78;;;20.90;55.70;;;;;;4991534;28;20281;-90
2021/08/27 12:22:21;;;;;;;4.45;3.50;;;20.70;55.90;;;;;;5008763;28;20184;-90
2021/08/27 12:24:47;;;;;;;4.05;3.53;;;20.50;57.30;;;;;;4992298;28;20211;-90
2021/08/27 12:27:14;;;;;;;6.60;4.85;;;20.60;59.00;;;;;;5008872;28;20242;-90
2021/08/27 12:29:40;;;;;;;4.60;3.78;;;20.60;58.20;;;;;;4989063;28;20193;-90
2021/08/27 12:32:06;;;;;;;7.35;4.15;;;20.50;56.30;;;;;;4994394;28;21157;-90
2021/08/27 12:34:32;;;;;;;6.45;3.85;;;20.50;57.00;;;;;;4990962;28;20243;-88
2021/08/27 12:36:57;;;;;;;5.25;3.65;;;20.70;56.60;;;;;;4993006;28;20215;-88
2021/08/27 12:39:24;;;;;;;6.38;4.20;;;21.10;54.50;;;;;;4990398;28;20224;-88
2021/08/27 12:41:49;;;;;;;4.65;3.55;;;21.20;55.00;;;;;;4991063;28;20284;-89
2021/08/27 12:44:16;;;;;;;4.45;3.22;;;21.30;53.60;;;;;;4989877;28;20247;-90
2021/08/27 12:46:50;;;;;;;4.22;3.47;;;21.20;54.80;;;;;;4984376;28;20235;-89
2021/08/27 12:49:17;;;;;;;4.00;3.47;;;21.40;54.00;;;;;;4987572;28;20541;-88
2021/08/27 12:51:45;;;;;;;5.68;4.00;;;21.40;54.30;;;;;;4991914;28;20934;-90
2021/08/27 12:54:12;;;;;;;5.15;3.40;;;21.60;54.50;;;;;;4990159;28;20209;-90
2021/08/27 12:56:38;;;;;;;5.07;3.58;;;22.00;53.10;;;;;;4992710;28;20641;-90